Time,TemperatureF,DewpointF,PressureIn,WindDirection,WindDirectionDegrees,WindSpeedMPH,WindSpeedGustMPH,Humidity,HourlyPrecipIn,Conditions,Clouds,dailyrainin,SoftwareType,DateUTC
2013-06-18 00:12:00,60.0,58.0,-100.00,NE,40,0.0,0.0,94,-99.99,,,-99.99,,2013-06-18 05:12:00,
2013-06-18 00:22:00,60.0,58.0,-100.00,NE,40,0.0,0.0,94,-99.99,,,-99.99,,2013-06-18 05:22:00,
2013-06-18 00:34:00,60.0,58.0,-100.00,NE,40,0.0,0.0,94,-99.99,,,-99.99,,2013-06-18 05:34:00,
2013-06-18 00:43:00,60.0,58.0,-100.00,NE,40,0.0,0.0,94,-99.99,,,-99.99,,2013-06-18 05:43:00,
2013-06-18 00:52:00,59.0,57.0,-100.00,ENE,60,0.0,0.0,94,-99.99,,,-99.99,,2013-06-18 05:52:00,
2013-06-18 01:11:00,59.0,57.0,-100.00,ENE,60,0.0,0.0,94,-99.99,,,-99.99,,2013-06-18 06:11:00,
2013-06-18 01:23:00,59.0,57.0,-100.00,ENE,60,0.0,0.0,94,-99.99,,,-99.99,,2013-06-18 06:23:00,
2013-06-18 01:32:00,59.0,57.0,-100.00,ENE,60,0.0,0.0,94,-99.99,,,-99.99,,2013-06-18 06:32:00,
2013-06-18 01:43:00,59.0,57.0,-100.00,ENE,60,0.0,0.0,94,-99.99,,,-99.99,,2013-06-18 06:43:00,
2013-06-18 01:52:00,57.0,56.0,-100.00,NE,55,0.0,0.0,94,-99.99,,,-99.99,,2013-06-18 06:52:00,
2013-06-18 02:12:00,57.0,56.0,-100.00,NE,55,0.0,0.0,94,-99.99,,,-99.99,,2013-06-18 07:12:00,
2013-06-18 02:22:00,57.0,56.0,-100.00,NE,55,0.0,0.0,94,-99.99,,,-99.99,,2013-06-18 07:22:00,
2013-06-18 02:33:00,57.0,56.0,-100.00,NE,55,0.0,0.0,94,-99.99,,,-99.99,,2013-06-18 07:33:00,
2013-06-18 02:43:00,57.0,56.0,-100.00,NE,55,0.0,0.0,94,-99.99,,,-99.99,,2013-06-18 07:43:00,
2013-06-18 02:52:00,56.0,54.0,-100.00,NE,40,0.0,0.0,94,-99.99,,,-99.99,,2013-06-18 07:52:00,
2013-06-18 03:11:00,56.0,54.0,-100.00,NE,40,0.0,0.0,94,-99.99,,,-99.99,,2013-06-18 08:11:00,
2013-06-18 03:23:00,56.0,54.0,-100.00,NE,40,0.0,0.0,94,-99.99,,,-99.99,,2013-06-18 08:23:00,
2013-06-18 03:33:00,56.0,54.0,-100.00,NE,40,0.0,0.0,94,-99.99,,,-99.99,,2013-06-18 08:33:00,
2013-06-18 03:43:00,56.0,54.0,-100.00,NE,40,0.0,0.0,94,-99.99,,,-99.99,,2013-06-18 08:43:00,
2013-06-18 03:52:00,55.0,53.0,-100.00,NE,35,0.0,0.0,93,-99.99,,,-99.99,,2013-06-18 08:52:00,
2013-06-18 04:12:00,55.0,53.0,-100.00,NE,35,0.0,0.0,93,-99.99,,,-99.99,,2013-06-18 09:12:00,
2013-06-18 04:22:00,55.0,53.0,-100.00,NE,35,0.0,0.0,93,-99.99,,,-99.99,,2013-06-18 09:22:00,
2013-06-18 04:34:00,55.0,53.0,-100.00,NE,35,0.0,0.0,93,-99.99,,,-99.99,,2013-06-18 09:34:00,
2013-06-18 04:43:00,55.0,53.0,-100.00,NE,35,0.0,0.0,93,-99.99,,,-99.99,,2013-06-18 09:43:00,
2013-06-18 04:52:00,54.0,52.0,-100.00,ENE,75,0.0,0.0,93,-99.99,,,-99.99,,2013-06-18 09:52:00,
2013-06-18 05:11:00,54.0,52.0,-100.00,ENE,75,0.0,0.0,93,-99.99,,,-99.99,,2013-06-18 10:11:00,
2013-06-18 05:22:00,54.0,52.0,-100.00,ENE,75,0.0,0.0,93,-99.99,,,-99.99,,2013-06-18 10:22:00,
2013-06-18 05:33:00,54.0,52.0,-100.00,ENE,75,0.0,0.0,93,-99.99,,,-99.99,,2013-06-18 10:33:00,
2013-06-18 05:43:00,54.0,52.0,-100.00,ENE,75,0.0,0.0,93,-99.99,,,-99.99,,2013-06-18 10:43:00,
2013-06-18 05:52:00,51.0,50.0,-100.00,ENE,75,0.0,0.0,95,-99.99,,,-99.99,,2013-06-18 10:52:00,
2013-06-18 06:11:00,51.0,50.0,-100.00,ENE,75,0.0,0.0,95,-99.99,,,-99.99,,2013-06-18 11:11:00,
2013-06-18 06:22:00,51.0,50.0,-100.00,ENE,75,0.0,0.0,95,-99.99,,,-99.99,,2013-06-18 11:22:00,
2013-06-18 06:32:00,51.0,50.0,-100.00,ENE,75,0.0,0.0,95,-99.99,,,-99.99,,2013-06-18 11:32:00,
2013-06-18 06:43:00,51.0,50.0,-100.00,ENE,75,0.0,0.0,95,-99.99,,,-99.99,,2013-06-18 11:43:00,
2013-06-18 06:52:00,52.0,44.0,-100.00,East,100,0.0,0.0,74,-99.99,,,-99.99,,2013-06-18 11:52:00,
2013-06-18 07:11:00,52.0,44.0,-100.00,East,100,0.0,0.0,74,-99.99,,,-99.99,,2013-06-18 12:11:00,
2013-06-18 07:22:00,52.0,44.0,-100.00,East,100,0.0,0.0,74,-99.99,,,-99.99,,2013-06-18 12:22:00,
2013-06-18 07:33:00,52.0,44.0,-100.00,East,100,0.0,0.0,74,-99.99,,,-99.99,,2013-06-18 12:33:00,
2013-06-18 07:43:00,52.0,44.0,-100.00,East,100,0.0,0.0,74,-99.99,,,-99.99,,2013-06-18 12:43:00,
2013-06-18 07:52:00,53.0,44.0,-100.00,ENE,75,0.0,0.0,70,-99.99,,,-99.99,,2013-06-18 12:52:00,
2013-06-18 08:12:00,53.0,44.0,-100.00,ENE,75,0.0,0.0,70,-99.99,,,-99.99,,2013-06-18 13:12:00,
2013-06-18 08:22:00,53.0,44.0,-100.00,ENE,75,0.0,0.0,70,-99.99,,,-99.99,,2013-06-18 13:22:00,
2013-06-18 08:33:00,53.0,44.0,-100.00,ENE,75,0.0,0.0,70,-99.99,,,-99.99,,2013-06-18 13:33:00,
2013-06-18 08:43:00,53.0,44.0,-100.00,ENE,75,0.0,0.0,70,-99.99,,,-99.99,,2013-06-18 13:43:00,
2013-06-18 08:52:00,56.0,46.0,-100.00,NE,45,0.0,0.0,69,-99.99,,,-99.99,,2013-06-18 13:52:00,
2013-06-18 09:11:00,56.0,46.0,-100.00,NE,45,0.0,0.0,69,-99.99,,,-99.99,,2013-06-18 14:11:00,
2013-06-18 09:22:00,56.0,46.0,-100.00,NE,45,0.0,0.0,69,-99.99,,,-99.99,,2013-06-18 14:22:00,
2013-06-18 09:33:00,56.0,46.0,-100.00,NE,45,0.0,0.0,69,-99.99,,,-99.99,,2013-06-18 14:33:00,
2013-06-18 09:43:00,56.0,46.0,-100.00,NE,45,0.0,0.0,69,-99.99,,,-99.99,,2013-06-18 14:43:00,
2013-06-18 09:52:00,59.0,47.0,-100.00,NE,50,0.0,0.0,66,-99.99,,,-99.99,,2013-06-18 14:52:00,
2013-06-18 10:11:00,59.0,47.0,-100.00,NE,50,0.0,0.0,66,-99.99,,,-99.99,,2013-06-18 15:11:00,
2013-06-18 10:22:00,59.0,47.0,-100.00,NE,50,0.0,0.0,66,-99.99,,,-99.99,,2013-06-18 15:22:00,
2013-06-18 10:33:00,59.0,47.0,-100.00,NE,50,0.0,0.0,66,-99.99,,,-99.99,,2013-06-18 15:33:00,
2013-06-18 10:43:00,59.0,47.0,-100.00,NE,50,0.0,0.0,66,-99.99,,,-99.99,,2013-06-18 15:43:00,
2013-06-18 10:53:00,61.0,49.0,-100.00,East,95,0.0,0.0,64,-99.99,,,-99.99,,2013-06-18 15:53:00,
2013-06-18 11:11:00,61.0,49.0,-100.00,East,95,0.0,0.0,64,-99.99,,,-99.99,,2013-06-18 16:11:00,
2013-06-18 11:23:00,61.0,49.0,-100.00,East,95,0.0,0.0,64,-99.99,,,-99.99,,2013-06-18 16:23:00,
2013-06-18 11:33:00,61.0,49.0,-100.00,East,95,0.0,0.0,64,-99.99,,,-99.99,,2013-06-18 16:33:00,
2013-06-18 11:43:00,61.0,49.0,-100.00,East,95,0.0,0.0,64,-99.99,,,-99.99,,2013-06-18 16:43:00,
2013-06-18 11:53:00,64.0,50.0,-100.00,East,95,0.0,0.0,59,-99.99,,,-99.99,,2013-06-18 16:53:00,
2013-06-18 12:12:00,64.0,50.0,-100.00,East,95,0.0,0.0,59,-99.99,,,-99.99,,2013-06-18 17:12:00,
2013-06-18 12:22:00,64.0,50.0,-100.00,East,95,0.0,0.0,59,-99.99,,,-99.99,,2013-06-18 17:22:00,
2013-06-18 12:33:00,64.0,50.0,-100.00,East,95,0.0,0.0,59,-99.99,,,-99.99,,2013-06-18 17:33:00,
2013-06-18 12:43:00,64.0,50.0,-100.00,East,95,0.0,0.0,59,-99.99,,,-99.99,,2013-06-18 17:43:00,
2013-06-18 12:52:00,65.0,46.0,-100.00,ESE,105,0.0,0.0,49,-99.99,,,-99.99,,2013-06-18 17:52:00,
2013-06-18 13:11:00,65.0,46.0,-100.00,ESE,105,0.0,0.0,49,-99.99,,,-99.99,,2013-06-18 18:11:00,
2013-06-18 13:22:00,65.0,46.0,-100.00,ESE,105,0.0,0.0,49,-99.99,,,-99.99,,2013-06-18 18:22:00,
2013-06-18 13:33:00,65.0,46.0,-100.00,ESE,105,0.0,0.0,49,-99.99,,,-99.99,,2013-06-18 18:33:00,
2013-06-18 13:42:00,65.0,46.0,-100.00,ESE,105,0.0,0.0,49,-99.99,,,-99.99,,2013-06-18 18:42:00,
2013-06-18 14:12:00,68.0,45.0,-100.00,SE,135,0.0,0.0,44,-99.99,,,-99.99,,2013-06-18 19:12:00,
2013-06-18 14:22:00,68.0,45.0,-100.00,SE,135,0.0,0.0,44,-99.99,,,-99.99,,2013-06-18 19:22:00,
2013-06-18 14:33:00,68.0,45.0,-100.00,SE,135,0.0,0.0,44,-99.99,,,-99.99,,2013-06-18 19:33:00,
2013-06-18 14:43:00,68.0,45.0,-100.00,SE,135,0.0,0.0,44,-99.99,,,-99.99,,2013-06-18 19:43:00,
2013-06-18 14:52:00,68.0,45.0,-100.00,SE,135,0.0,0.0,44,-99.99,,,-99.99,,2013-06-18 19:52:00,
2013-06-18 15:11:00,69.0,46.0,-100.00,East,100,0.0,0.0,44,-99.99,,,-99.99,,2013-06-18 20:11:00,
2013-06-18 15:23:00,69.0,46.0,-100.00,East,100,0.0,0.0,44,-99.99,,,-99.99,,2013-06-18 20:23:00,
2013-06-18 15:33:00,69.0,46.0,-100.00,East,100,0.0,0.0,44,-99.99,,,-99.99,,2013-06-18 20:33:00,
2013-06-18 15:43:00,69.0,46.0,-100.00,East,100,0.0,0.0,44,-99.99,,,-99.99,,2013-06-18 20:43:00,
2013-06-18 15:52:00,69.0,46.0,-100.00,East,100,0.0,0.0,44,-99.99,,,-99.99,,2013-06-18 20:52:00,
2013-06-18 16:11:00,68.0,42.0,-100.00,SE,125,0.0,0.0,38,-99.99,,,-99.99,,2013-06-18 21:11:00,
2013-06-18 16:23:00,68.0,42.0,-100.00,SE,125,0.0,0.0,38,-99.99,,,-99.99,,2013-06-18 21:23:00,
2013-06-18 16:33:00,68.0,42.0,-100.00,SE,125,0.0,0.0,38,-99.99,,,-99.99,,2013-06-18 21:33:00,
2013-06-18 16:43:00,68.0,42.0,-100.00,SE,125,0.0,0.0,38,-99.99,,,-99.99,,2013-06-18 21:43:00,
2013-06-18 16:52:00,70.0,43.0,-100.00,NNE,15,0.0,0.0,38,-99.99,,,-99.99,,2013-06-18 21:52:00,
2013-06-18 17:11:00,70.0,43.0,-100.00,NNE,15,0.0,0.0,38,-99.99,,,-99.99,,2013-06-18 22:11:00,
2013-06-18 17:22:00,70.0,43.0,-100.00,NNE,15,0.0,0.0,38,-99.99,,,-99.99,,2013-06-18 22:22:00,
2013-06-18 17:34:00,70.0,43.0,-100.00,NNE,15,0.0,0.0,38,-99.99,,,-99.99,,2013-06-18 22:34:00,
2013-06-18 17:43:00,70.0,43.0,-100.00,NNE,15,0.0,0.0,38,-99.99,,,-99.99,,2013-06-18 22:43:00,
2013-06-18 17:53:00,69.0,40.0,-100.00,SE,135,0.0,0.0,35,-99.99,,,-99.99,,2013-06-18 22:53:00,
2013-06-18 18:11:00,69.0,40.0,-100.00,SE,135,0.0,0.0,35,-99.99,,,-99.99,,2013-06-18 23:11:00,
2013-06-18 18:23:00,69.0,40.0,-100.00,SE,135,0.0,0.0,35,-99.99,,,-99.99,,2013-06-18 23:23:00,
2013-06-18 18:36:00,69.0,40.0,-100.00,SE,135,0.0,0.0,35,-99.99,,,-99.99,,2013-06-18 23:36:00,
2013-06-18 18:46:00,69.0,40.0,-100.00,SE,135,0.0,0.0,35,-99.99,,,-99.99,,2013-06-18 23:46:00,
2013-06-18 18:52:00,69.0,43.0,-100.00,ESE,120,0.0,0.0,39,-99.99,,,-99.99,,2013-06-18 23:52:00,
2013-06-18 19:11:00,69.0,43.0,-100.00,ESE,120,0.0,0.0,39,-99.99,,,-99.99,,2013-06-19 00:11:00,
2013-06-18 19:22:00,69.0,43.0,-100.00,ESE,120,0.0,0.0,39,-99.99,,,-99.99,,2013-06-19 00:22:00,
2013-06-18 19:33:00,69.0,43.0,-100.00,ESE,120,0.0,0.0,39,-99.99,,,-99.99,,2013-06-19 00:33:00,
2013-06-18 19:43:00,69.0,43.0,-100.00,ESE,120,0.0,0.0,39,-99.99,,,-99.99,,2013-06-19 00:43:00,
2013-06-18 19:52:00,68.0,44.0,-100.00,SE,145,0.0,0.0,42,-99.99,,,-99.99,,2013-06-19 00:52:00,
2013-06-18 20:11:00,68.0,44.0,-100.00,SE,145,0.0,0.0,42,-99.99,,,-99.99,,2013-06-19 01:11:00,
2013-06-18 20:22:00,68.0,44.0,-100.00,SE,145,0.0,0.0,42,-99.99,,,-99.99,,2013-06-19 01:22:00,
2013-06-18 20:32:00,68.0,44.0,-100.00,SE,145,0.0,0.0,42,-99.99,,,-99.99,,2013-06-19 01:32:00,
2013-06-18 20:43:00,68.0,44.0,-100.00,SE,145,0.0,0.0,42,-99.99,,,-99.99,,2013-06-19 01:43:00,
2013-06-18 21:11:00,62.0,46.0,-100.00,ENE,70,0.0,0.0,54,-99.99,,,-99.99,,2013-06-19 02:11:00,
2013-06-18 21:21:00,62.0,46.0,-100.00,ENE,70,0.0,0.0,54,-99.99,,,-99.99,,2013-06-19 02:21:00,
2013-06-18 21:32:00,62.0,46.0,-100.00,ENE,70,0.0,0.0,54,-99.99,,,-99.99,,2013-06-19 02:32:00,
2013-06-18 21:42:00,62.0,46.0,-100.00,ENE,70,0.0,0.0,54,-99.99,,,-99.99,,2013-06-19 02:42:00,
2013-06-18 21:51:00,62.0,46.0,-100.00,ENE,70,0.0,0.0,54,-99.99,,,-99.99,,2013-06-19 02:51:00,
2013-06-18 21:52:00,59.0,50.0,-100.00,East,80,0.0,0.0,72,-99.99,,,-99.99,,2013-06-19 02:52:00,
2013-06-18 22:11:00,59.0,50.0,-100.00,East,80,0.0,0.0,72,-99.99,,,-99.99,,2013-06-19 03:11:00,
2013-06-18 22:22:00,59.0,50.0,-100.00,East,80,0.0,0.0,72,-99.99,,,-99.99,,2013-06-19 03:22:00,
2013-06-18 22:33:00,59.0,50.0,-100.00,East,80,0.0,0.0,72,-99.99,,,-99.99,,2013-06-19 03:33:00,
2013-06-18 22:42:00,59.0,50.0,-100.00,East,80,0.0,0.0,72,-99.99,,,-99.99,,2013-06-19 03:42:00,
2013-06-18 22:53:00,57.0,51.0,-100.00,ESE,110,0.0,0.0,82,-99.99,,,-99.99,,2013-06-19 03:53:00,
2013-06-18 23:11:00,57.0,51.0,-100.00,ESE,110,0.0,0.0,82,-99.99,,,-99.99,,2013-06-19 04:11:00,
2013-06-18 23:22:00,57.0,51.0,-100.00,ESE,110,0.0,0.0,82,-99.99,,,-99.99,,2013-06-19 04:22:00,
2013-06-18 23:32:00,57.0,51.0,-100.00,ESE,110,0.0,0.0,82,-99.99,,,-99.99,,2013-06-19 04:32:00,
2013-06-18 23:42:00,57.0,51.0,-100.00,ESE,110,0.0,0.0,82,-99.99,,,-99.99,,2013-06-19 04:42:00,
2013-06-18 23:52:00,54.0,50.0,-100.00,SE,140,0.0,0.0,86,-99.99,,,-99.99,,2013-06-19 04:52:00,